Time;durP1;ratioP1;P1;durP2;ratioP2;P2;SDS_P1;SDS_P2;PMS_P1;PMS_P2;Temp;Humidity;BMP_temperature;BMP_pressure;BME280_temperature;BME280_humidity;BME280_pressure;Samples;Min_cycle;Max_cycle;Signal;HPM_P1;HPM_P2
2022/11/09 00:01:42;;;;;;;3.70;1.50;;;;;;;3.18;82.52;96225.81;1774555;80;21010;-63
2022/11/09 00:04:10;;;;;;;3.13;1.97;;;;;;;3.04;82.67;96220.73;1765477;80;20987;-63
2022/11/09 00:06:36;;;;;;;5.03;1.90;;;;;;;2.96;82.72;96228.39;1760404;80;21057;-62
2022/11/09 00:09:06;;;;;;;3.00;1.80;;;;;;;2.87;82.25;96224.70;1758953;80;21015;-62
2022/11/09 00:11:32;;;;;;;2.50;1.60;;;;;;;2.79;82.98;96227.16;1755029;80;21173;-62
2022/11/09 00:13:58;;;;;;;2.73;1.80;;;;;;;2.76;83.35;96226.66;1753648;80;21005;-63
2022/11/09 00:16:25;;;;;;;2.73;1.83;;;;;;;2.81;83.55;96227.64;1764044;80;21014;-62
2022/11/09 00:18:52;;;;;;;3.63;1.20;;;;;;;2.76;83.12;96222.75;1763136;80;21539;-62
2022/11/09 00:21:22;;;;;;;2.20;1.37;;;;;;;2.75;82.65;96221.01;1763168;80;21050;-62
2022/11/09 00:23:50;;;;;;;4.50;1.63;;;;;;;2.71;82.79;96228.29;1763860;80;21025;-62
2022/11/09 00:26:18;;;;;;;4.03;1.93;;;;;;;2.67;82.71;96227.79;1778953;80;20995;-62
2022/11/09 00:28:45;;;;;;;7.50;1.70;;;;;;;2.67;82.82;96225.58;1769144;79;20971;-62
2022/11/09 00:31:16;;;;;;;2.97;1.77;;;;;;;2.70;82.83;96224.37;1768143;79;21491;-62
2022/11/09 00:33:54;;;;;;;2.00;1.40;;;;;;;2.71;82.74;96230.89;1767075;79;21005;-62
2022/11/09 00:36:22;;;;;;;1.83;1.20;;;;;;;2.71;82.90;96219.17;1773015;79;20986;-62
2022/11/09 00:38:52;;;;;;;4.37;1.43;;;;;;;2.61;82.39;96221.13;1760482;79;21061;-63
2022/11/09 00:41:20;;;;;;;1.83;1.40;;;;;;;2.55;82.35;96223.17;1769220;79;21073;-62
2022/11/09 00:43:48;;;;;;;3.73;1.60;;;;;;;2.59;82.74;96218.90;1764793;79;20996;-62
2022/11/09 00:46:16;;;;;;;3.70;1.47;;;;;;;2.64;82.82;96218.58;1778828;79;21097;-63
2022/11/09 00:48:44;;;;;;;2.57;1.40;;;;;;;2.69;82.87;96206.95;1775485;80;21085;-63
2022/11/09 00:51:12;;;;;;;3.97;1.30;;;;;;;2.75;82.94;96211.02;1737129;82;21038;-63
2022/11/09 00:53:41;;;;;;;2.03;1.23;;;;;;;2.70;82.42;96212.64;1697906;83;21514;-63
2022/11/09 00:56:12;;;;;;;2.80;1.13;;;;;;;2.64;82.17;96215.97;1730307;82;21022;-63
2022/11/09 00:58:40;;;;;;;2.30;1.30;;;;;;;2.65;82.72;96214.27;1775462;80;21059;-62
2022/11/09 01:01:11;;;;;;;4.57;1.40;;;;;;;2.67;82.98;96203.44;1756939;80;21018;-62
2022/11/09 01:03:41;;;;;;;3.25;1.60;;;;;;;2.68;82.65;96214.33;1761141;80;20998;-62
2022/11/09 01:06:11;;;;;;;2.80;1.33;;;;;;;2.56;82.84;96209.29;1755742;80;21535;-62
2022/11/09 01:08:38;;;;;;;2.77;1.70;;;;;;;2.53;83.11;96200.55;1776529;80;21497;-62
2022/11/09 01:11:07;;;;;;;3.77;1.30;;;;;;;2.55;83.22;96207.97;1770521;80;21501;-62
2022/11/09 01:13:35;;;;;;;2.80;1.60;;;;;;;2.48;83.11;96205.64;1766385;80;20986;-62
2022/11/09 01:16:10;;;;;;;3.90;1.53;;;;;;;2.46;83.54;96203.42;1760149;80;21019;-62
2022/11/09 01:18:37;;;;;;;2.67;1.57;;;;;;;2.54;83.65;96200.98;1752237;81;21021;-63
2022/11/09 01:21:07;;;;;;;1.77;1.07;;;;;;;2.64;83.66;96199.47;1767544;80;21045;-62
2022/11/09 01:23:34;;;;;;;4.77;2.20;;;;;;;2.57;82.75;96201.95;1770980;80;21544;-62
2022/11/09 01:26:04;;;;;;;3.00;1.73;;;;;;;2.52;82.51;96203.97;1778381;80;21026;-62
2022/11/09 01:28:33;;;;;;;4.57;1.40;;;;;;;2.49;83.06;96202.18;1777343;79;21701;-63
2022/11/09 01:31:06;;;;;;;2.67;1.60;;;;;;;2.52;83.43;96202.67;1768391;79;21009;-63
2022/11/09 01:33:34;;;;;;;3.03;1.40;;;;;;;2.51;82.81;96202.23;1776123;80;21102;-62
2022/11/09 01:36:17;;;;;;;3.03;1.40;;;;;;;2.44;82.57;96197.72;1765648;79;21064;-63
2022/11/09 01:38:44;;;;;;;2.20;1.47;;;;;;;2.35;82.40;96195.80;1761042;79;21073;-63
2022/11/09 01:41:21;;;;;;;2.00;1.40;;;;;;;2.31;82.89;96197.44;1776526;80;21644;-62
2022/11/09 01:44:16;;;;;;;1.93;1.10;;;;;;;2.28;82.57;96194.77;1773489;79;21089;-62
2022/11/09 01:46:54;;;;;;;2.77;1.70;;;;;;;2.22;82.56;96192.44;1764593;79;21582;-63
2022/11/09 01:49:47;;;;;;;2.10;1.20;;;;;;;2.26;82.79;96183.44;1775371;79;21039;-62
2022/11/09 01:52:20;;;;;;;2.97;1.53;;;;;;;2.20;83.11;96185.91;1776629;79;21018;-62
2022/11/09 01:54:52;;;;;;;2.97;1.73;;;;;;;2.13;83.47;96187.48;1770182;79;21136;-62
2022/11/09 01:57:24;;;;;;;2.07;1.27;;;;;;;2.09;83.59;96188.27;1760842;81;21013;-62
2022/11/09 01:59:59;;;;;;;3.77;2.07;;;;;;;2.07;84.19;96183.88;1774504;79;21034;-62
2022/11/09 02:02:26;;;;;;;2.67;1.50;;;;;;;2.05;84.16;96187.73;1735182;81;21021;-63
2022/11/09 02:05:00;;;;;;;3.97;1.97;;;;;;;2.03;84.83;96188.54;1731092;81;21017;-62
2022/11/09 02:07:28;;;;;;;1.83;1.30;;;;;;;2.06;84.65;96182.09;1730330;81;21082;-62
2022/11/09 02:10:16;;;;;;;2.77;1.30;;;;;;;2.05;84.14;96183.83;1735271;81;21497;-62
2022/11/09 02:12:44;;;;;;;3.00;1.40;;;;;;;2.09;84.25;96186.97;1732174;82;21047;-62
2022/11/09 02:15:12;;;;;;;3.80;1.30;;;;;;;2.16;84.31;96175.83;1699989;81;21105;-63
2022/11/09 02:17:40;;;;;;;1.50;1.10;;;;;;;2.09;83.50;96177.86;1750050;80;21082;-63
2022/11/09 02:20:15;;;;;;;2.63;1.20;;;;;;;2.01;84.30;96174.17;1739766;82;21047;-62
2022/11/09 02:22:42;;;;;;;1.50;1.00;;;;;;;1.99;83.98;96177.19;1737060;82;21488;-62
2022/11/09 02:25:11;;;;;;;2.60;1.20;;;;;;;1.98;83.55;96174.54;1738379;82;21000;-62
2022/11/09 02:27:39;;;;;;;3.13;1.10;;;;;;;1.97;83.87;96174.97;1736474;82;21035;-71
2022/11/09 02:30:08;;;;;;;3.40;1.07;;;;;;;2.01;84.16;96174.17;1728925;82;21031;-62
2022/11/09 02:32:35;;;;;;;1.70;1.10;;;;;;;2.02;83.76;96175.08;1746251;82;21520;-62
2022/11/09 02:35:03;;;;;;;2.27;1.27;;;;;;;2.05;84.00;96174.72;1738476;82;21049;-62
2022/11/09 02:37:49;;;;;;;3.40;1.40;;;;;;;2.10;84.22;96178.31;1737727;82;21156;-61
2022/11/09 02:40:20;;;;;;;4.27;1.57;;;;;;;2.12;84.12;96174.02;1727237;82;21000;-62
2022/11/09 02:42:48;;;;;;;2.90;1.50;;;;;;;2.09;84.03;96170.05;1724557;82;21022;-63
2022/11/09 02:45:14;;;;;;;4.00;1.50;;;;;;;2.06;83.73;96177.77;1736295;81;21019;-62
2022/11/09 02:47:41;;;;;;;2.47;1.30;;;;;;;2.03;83.80;96174.22;1739451;82;21475;-62
2022/11/09 02:50:09;;;;;;;4.43;1.53;;;;;;;2.04;84.05;96174.27;1741064;82;21086;-62
2022/11/09 02:52:36;;;;;;;2.63;1.37;;;;;;;2.05;83.94;96175.14;1742963;81;21016;-62
2022/11/09 02:55:04;;;;;;;2.80;1.40;;;;;;;2.01;83.71;96172.88;1738032;82;21065;-63
2022/11/09 02:57:30;;;;;;;3.30;1.33;;;;;;;1.95;83.46;96170.14;1737029;82;21019;-63
2022/11/09 02:59:58;;;;;;;2.37;1.20;;;;;;;1.98;83.87;96167.60;1742243;82;21066;-62
2022/11/09 03:02:24;;;;;;;1.67;1.03;;;;;;;1.91;83.40;96168.30;1739448;82;21027;-63
2022/11/09 03:04:51;;;;;;;2.17;1.37;;;;;;;1.85;83.12;96175.54;1739505;82;21082;-62
2022/11/09 03:07:19;;;;;;;2.70;1.40;;;;;;;1.80;83.46;96172.38;1729937;81;21022;-62
2022/11/09 03:09:46;;;;;;;2.00;1.37;;;;;;;1.72;84.12;96178.27;1726563;81;21511;-62
2022/11/09 03:12:28;;;;;;;1.83;1.20;;;;;;;1.66;84.12;96170.72;1724696;83;21523;-62
2022/11/09 03:14:57;;;;;;;2.40;1.53;;;;;;;1.65;84.02;96173.74;1724655;82;21459;-62
2022/11/09 03:17:25;;;;;;;2.43;1.20;;;;;;;1.66;83.97;96172.02;1730864;82;21552;-62
2022/11/09 03:19:53;;;;;;;5.60;1.50;;;;;;;1.66;84.52;96174.22;1734391;82;21046;-62
2022/11/09 03:22:21;;;;;;;2.20;1.10;;;;;;;1.69;84.47;96174.72;1742725;82;21039;-62
2022/11/09 03:24:48;;;;;;;4.20;1.40;;;;;;;1.70;84.49;96170.84;1740962;82;21029;-62
2022/11/09 03:27:16;;;;;;;2.37;1.40;;;;;;;1.78;84.66;96175.35;1732700;81;21074;-63
2022/11/09 03:29:43;;;;;;;3.33;1.23;;;;;;;1.89;84.85;96176.48;1728664;81;20982;-62
2022/11/09 03:32:11;;;;;;;3.57;1.30;;;;;;;1.95;84.67;96168.41;1741258;82;21038;-62
2022/11/09 03:34:38;;;;;;;1.73;1.17;;;;;;;1.98;84.07;96170.20;1741049;81;20988;-62
2022/11/09 03:37:04;;;;;;;2.73;1.30;;;;;;;2.00;84.27;96168.52;1739094;82;21500;-63
2022/11/09 03:39:32;;;;;;;2.87;1.33;;;;;;;1.94;83.56;96170.56;1739090;82;20995;-62
2022/11/09 03:41:59;;;;;;;1.87;1.10;;;;;;;1.87;83.68;96169.08;1729243;81;21504;-63
2022/11/09 03:44:26;;;;;;;2.63;1.20;;;;;;;1.89;84.14;96166.98;1731778;81;21488;-62
2022/11/09 03:46:52;;;;;;;1.90;1.00;;;;;;;1.88;83.67;96167.80;1736710;81;21114;-62
2022/11/09 03:49:19;;;;;;;2.20;1.30;;;;;;;1.92;84.21;96168.77;1738683;81;21018;-62
2022/11/09 03:51:45;;;;;;;5.63;1.77;;;;;;;1.95;83.85;96164.51;1715044;83;20998;-63
2022/11/09 03:54:12;;;;;;;2.70;1.10;;;;;;;2.02;84.33;96163.37;1730541;82;21024;-62
2022/11/09 03:56:38;;;;;;;2.53;1.70;;;;;;;1.94;83.35;96167.06;1711088;83;21532;-62
2022/11/09 03:59:05;;;;;;;3.83;2.10;;;;;;;1.80;83.03;96165.88;1708058;83;21070;-62
2022/11/09 04:01:32;;;;;;;4.90;2.13;;;;;;;1.75;83.56;96167.05;1722025;82;21132;-62
2022/11/09 04:03:59;;;;;;;23.03;9.67;;;;;;;1.77;83.46;96164.50;1713384;83;21094;-62
2022/11/09 04:06:26;;;;;;;4.90;2.80;;;;;;;1.71;83.34;96170.41;1736582;82;21026;-62
2022/11/09 04:08:52;;;;;;;3.57;1.80;;;;;;;1.67;83.31;96164.27;1760626;79;21025;-62
2022/11/09 04:11:19;;;;;;;1.83;1.23;;;;;;;1.66;83.22;96165.52;1781995;79;21034;-63
2022/11/09 04:13:46;;;;;;;4.03;1.53;;;;;;;1.59;83.35;96166.20;1753637;80;21025;-62
2022/11/09 04:16:12;;;;;;;2.70;1.90;;;;;;;1.58;83.70;96167.05;1749826;80;21002;-62
2022/11/09 04:18:39;;;;;;;3.10;1.50;;;;;;;1.58;83.90;96164.02;1772616;80;21085;-62
2022/11/09 04:21:06;;;;;;;1.50;1.00;;;;;;;1.61;84.23;96164.52;1773305;79;21045;-62
2022/11/09 04:23:33;;;;;;;3.07;1.47;;;;;;;1.58;83.59;96163.15;1760355;79;20991;-63
2022/11/09 04:25:59;;;;;;;2.73;1.53;;;;;;;1.53;83.41;96159.13;1764765;80;21041;-62
2022/11/09 04:28:26;;;;;;;2.43;1.23;;;;;;;1.61;84.42;96157.59;1767971;79;20981;-66
2022/11/09 04:30:53;;;;;;;2.53;1.40;;;;;;;1.66;84.02;96159.92;1777231;79;21022;-62
2022/11/09 04:33:20;;;;;;;2.30;1.50;;;;;;;1.58;83.98;96154.92;1767023;79;21061;-62
2022/11/09 04:35:46;;;;;;;3.53;1.00;;;;;;;1.55;83.65;96151.37;1764924;79;20985;-62
2022/11/09 04:38:13;;;;;;;1.50;1.10;;;;;;;1.57;83.82;96159.67;1766650;79;21033;-62
2022/11/09 04:40:40;;;;;;;1.90;1.20;;;;;;;1.57;84.43;96155.77;1775556;79;21516;-62
2022/11/09 04:43:12;;;;;;;1.10;0.83;;;;;;;1.57;84.05;96144.50;1776814;79;21010;-62
2022/11/09 04:45:39;;;;;;;2.20;1.47;;;;;;;1.60;83.89;96149.77;1775313;80;21134;-62
2022/11/09 04:48:09;;;;;;;2.70;1.37;;;;;;;1.59;83.98;96148.89;1775215;79;21063;-63
2022/11/09 04:50:35;;;;;;;3.27;1.10;;;;;;;1.62;83.99;96146.36;1777911;79;21552;-63
2022/11/09 04:53:09;;;;;;;2.40;1.43;;;;;;;1.63;83.52;96151.14;1777823;80;21057;-66
2022/11/09 04:55:36;;;;;;;6.57;2.47;;;;;;;1.46;83.11;96151.61;1766484;80;21086;-69
2022/11/09 04:58:04;;;;;;;5.03;3.23;;;;;;;1.40;84.09;96156.64;1757949;80;21021;-68
2022/11/09 05:00:31;;;;;;;1.23;1.10;;;;;;;1.42;84.65;96150.19;1749706;80;21082;-68
2022/11/09 05:03:02;;;;;;;2.57;1.63;;;;;;;1.41;84.42;96154.91;1769373;80;20999;-68
2022/11/09 05:05:29;;;;;;;2.03;1.17;;;;;;;1.46;84.41;96155.91;1765793;80;21116;-68
2022/11/09 05:07:56;;;;;;;2.93;1.50;;;;;;;1.46;83.79;96162.41;1749884;80;21025;-68
2022/11/09 05:10:22;;;;;;;2.80;1.33;;;;;;;1.39;83.71;96162.69;1764718;80;21046;-67
2022/11/09 05:12:49;;;;;;;3.00;2.10;;;;;;;1.36;83.95;96158.72;1759300;80;21013;-67
2022/11/09 05:15:16;;;;;;;2.07;1.47;;;;;;;1.37;84.02;96160.89;1769740;79;21005;-67
2022/11/09 05:17:42;;;;;;;3.77;1.23;;;;;;;1.33;83.58;96165.12;1762408;79;21025;-67
2022/11/09 05:20:11;;;;;;;3.00;1.40;;;;;;;1.32;83.97;96159.47;1781035;79;20975;-67
2022/11/09 05:25:26;;;;;;;19.47;10.27;;;;;;;1.28;84.67;96168.89;1766541;79;21543;-68
2022/11/09 05:27:52;;;;;;;8.70;4.67;;;;;;;1.30;84.82;96174.14;1775546;79;21172;-67
2022/11/09 05:30:20;;;;;;;1.70;1.23;;;;;;;1.25;84.25;96174.44;1776948;79;21022;-67
2022/11/09 05:32:47;;;;;;;2.50;1.10;;;;;;;1.20;84.22;96175.61;1769395;80;21037;-67
2022/11/09 05:35:14;;;;;;;5.13;1.43;;;;;;;1.26;84.93;96179.70;1758155;80;21062;-68
2022/11/09 05:37:41;;;;;;;15.60;10.47;;;;;;;1.32;84.36;96184.59;1749963;80;21021;-67
2022/11/09 05:40:09;;;;;;;17.80;10.87;;;;;;;1.26;84.78;96190.09;1755675;80;21627;-68
2022/11/09 05:42:40;;;;;;;10.20;5.47;;;;;;;1.32;85.13;96192.39;1760234;80;21481;-68
2022/11/09 05:45:10;;;;;;;5.90;2.60;;;;;;;1.42;85.00;96197.87;1767376;80;21017;-68
2022/11/09 05:47:38;;;;;;;2.27;1.40;;;;;;;1.48;84.97;96202.34;1777221;79;21073;-67
2022/11/09 05:50:08;;;;;;;3.53;1.60;;;;;;;1.55;84.82;96207.30;1768081;80;21030;-67
2022/11/09 05:52:35;;;;;;;2.23;1.40;;;;;;;1.51;84.72;96210.22;1782726;79;21045;-64
2022/11/09 05:55:02;;;;;;;2.67;1.40;;;;;;;1.58;85.19;96204.77;1772839;81;21517;-68
2022/11/09 05:57:29;;;;;;;2.27;1.30;;;;;;;1.63;84.53;96208.36;1773258;79;22180;-68
2022/11/09 05:59:56;;;;;;;3.50;1.40;;;;;;;1.56;84.31;96214.24;1775891;79;21073;-68
2022/11/09 06:02:23;;;;;;;2.53;1.30;;;;;;;1.55;84.65;96213.37;1771623;79;21044;-72
2022/11/09 06:04:49;;;;;;;9.67;7.37;;;;;;;1.49;85.13;96216.70;1762584;79;21017;-69
2022/11/09 06:07:16;;;;;;;12.57;7.27;;;;;;;1.49;85.09;96223.20;1781667;80;21048;-69
2022/11/09 06:09:42;;;;;;;10.73;7.30;;;;;;;1.54;85.14;96227.62;1778155;79;21097;-74
2022/11/09 06:12:09;;;;;;;24.03;11.53;;;;;;;1.58;85.47;96229.05;1768660;79;21179;-71
2022/11/09 06:14:35;;;;;;;9.73;6.80;;;;;;;1.63;85.46;96231.34;1770355;79;21525;-69
2022/11/09 06:17:02;;;;;;;4.57;2.90;;;;;;;1.66;85.48;96230.55;1771185;79;21026;-70
2022/11/09 06:19:29;;;;;;;2.77;2.17;;;;;;;1.69;85.93;96231.95;1788603;79;21076;-67
2022/11/09 06:21:56;;;;;;;5.20;2.77;;;;;;;1.79;86.28;96233.04;1774461;80;21550;-71
2022/11/09 06:24:23;;;;;;;5.83;2.67;;;;;;;1.82;86.03;96226.64;1751415;80;21086;-70
2022/11/09 06:26:50;;;;;;;5.47;3.23;;;;;;;1.87;86.69;96229.81;1758560;80;21094;-71
2022/11/09 06:29:16;;;;;;;3.57;1.90;;;;;;;1.87;85.99;96228.94;1749571;80;21129;-72
2022/11/09 06:31:43;;;;;;;3.50;3.20;;;;;;;1.90;85.72;96229.88;1763437;80;21579;-68
2022/11/09 06:34:10;;;;;;;6.20;3.10;;;;;;;1.95;86.05;96226.09;1768072;80;21043;-68
2022/11/09 06:36:37;;;;;;;2.37;1.40;;;;;;;2.04;86.39;96226.72;1762760;80;21080;-70
2022/11/09 06:39:04;;;;;;;4.13;1.37;;;;;;;2.21;86.85;96228.44;1755257;80;20980;-70
2022/11/09 06:41:31;;;;;;;6.77;1.50;;;;;;;2.36;86.15;96232.70;1769971;80;21014;-68
2022/11/09 06:43:57;;;;;;;11.83;6.80;;;;;;;2.36;85.99;96230.10;1768418;80;21125;-69
2022/11/09 06:46:24;;;;;;;15.20;8.73;;;;;;;2.50;86.59;96226.09;1768947;80;21015;-72
2022/11/09 06:48:50;;;;;;;14.77;8.70;;;;;;;2.70;86.71;96236.97;1732491;80;21644;-71
2022/11/09 06:51:17;;;;;;;10.57;8.00;;;;;;;2.93;86.93;96228.34;1763439;80;21077;-70
2022/11/09 06:53:43;;;;;;;5.83;3.97;;;;;;;3.18;86.48;96235.37;1758658;80;21038;-70
2022/11/09 06:56:10;;;;;;;8.07;5.00;;;;;;;3.21;85.20;96232.81;1787043;80;21061;-72
2022/11/09 06:58:38;;;;;;;4.40;2.60;;;;;;;3.28;85.13;96230.79;1783098;80;21041;-70
2022/11/09 07:01:10;;;;;;;6.50;3.90;;;;;;;3.29;84.44;96229.92;1754309;80;21054;-68
2022/11/09 07:03:38;;;;;;;4.43;3.23;;;;;;;3.34;84.60;96232.20;1777212;80;21026;-73
2022/11/09 07:06:11;;;;;;;4.80;2.80;;;;;;;3.43;84.97;96225.86;1775920;80;21120;-68
2022/11/09 07:08:38;;;;;;;6.35;3.98;;;;;;;3.48;85.03;96227.27;1754959;80;21156;-74
2022/11/09 07:11:15;;;;;;;7.60;5.70;;;;;;;3.51;84.91;96232.97;1788825;80;21017;-68
2022/11/09 07:13:42;;;;;;;6.70;5.10;;;;;;;3.54;84.70;96226.06;1770711;80;21117;-67
2022/11/09 07:16:11;;;;;;;5.53;3.93;;;;;;;3.65;85.11;96224.94;1783177;80;21200;-69
2022/11/09 07:18:37;;;;;;;5.00;3.63;;;;;;;3.74;85.11;96221.20;1788832;80;21094;-69
2022/11/09 07:21:05;;;;;;;8.97;5.37;;;;;;;3.80;85.12;96218.69;1777746;80;21081;-71
2022/11/09 07:23:32;;;;;;;6.20;4.67;;;;;;;3.87;85.02;96212.73;1779459;80;21609;-69
2022/11/09 07:25:59;;;;;;;8.70;6.33;;;;;;;4.03;85.24;96216.91;1777517;80;21524;-70
2022/11/09 07:28:26;;;;;;;7.93;5.80;;;;;;;4.21;85.44;96213.70;1779798;80;20966;-72
2022/11/09 07:30:53;;;;;;;10.10;7.37;;;;;;;4.42;85.62;96205.34;1786381;80;21022;-68
2022/11/09 07:33:21;;;;;;;7.73;6.13;;;;;;;4.58;84.80;96205.13;1789975;80;21069;-76
2022/11/09 07:35:48;;;;;;;9.50;6.63;;;;;;;4.64;84.69;96204.80;1775746;80;21148;-67
2022/11/09 07:38:15;;;;;;;8.77;6.40;;;;;;;4.78;84.49;96199.75;1782543;80;21061;-69
2022/11/09 07:40:43;;;;;;;8.07;5.23;;;;;;;4.84;83.86;96206.39;1777655;80;21109;-69
2022/11/09 07:43:11;;;;;;;10.67;6.47;;;;;;;4.96;84.17;96201.32;1776594;80;21096;-71
2022/11/09 07:45:40;;;;;;;12.13;7.07;;;;;;;5.09;83.82;96201.45;1777812;80;21127;-74
2022/11/09 07:48:10;;;;;;;12.43;7.50;;;;;;;5.12;84.22;96202.82;1772850;79;21594;-72
2022/11/09 07:50:40;;;;;;;13.20;5.93;;;;;;;5.29;84.67;96201.69;1760449;80;21097;-69
2022/11/09 07:53:08;;;;;;;17.40;8.93;;;;;;;5.46;84.44;96197.96;1771287;80;21054;-69
2022/11/09 07:55:35;;;;;;;10.20;5.83;;;;;;;5.62;84.54;96199.46;1769838;80;21674;-74
2022/11/09 07:58:12;;;;;;;8.70;4.90;;;;;;;5.88;84.66;96200.14;1774606;80;21071;-70
2022/11/09 08:00:41;;;;;;;6.97;3.40;;;;;;;6.12;84.16;96196.00;1758383;80;21015;-70
2022/11/09 08:03:10;;;;;;;6.30;4.10;;;;;;;6.42;83.71;96193.61;1774506;80;21038;-67
2022/11/09 08:05:37;;;;;;;9.53;4.10;;;;;;;6.70;84.00;96193.39;1780094;80;21500;-70
2022/11/09 08:08:07;;;;;;;7.73;3.50;;;;;;;7.01;83.55;96190.05;1756251;80;21468;-69
2022/11/09 08:10:35;;;;;;;10.00;4.53;;;;;;;7.25;81.20;96187.52;1775929;80;21017;-67
2022/11/09 08:13:09;;;;;;;6.80;4.37;;;;;;;7.35;81.22;96181.42;1765696;80;21592;-68
2022/11/09 08:15:37;;;;;;;9.50;4.60;;;;;;;7.51;80.81;96186.30;1780292;80;21122;-78
2022/11/09 08:18:07;;;;;;;10.80;8.27;;;;;;;7.62;79.57;96184.14;1779221;80;21029;-72
2022/11/09 08:20:34;;;;;;;8.67;5.43;;;;;;;7.72;79.27;96185.47;1773294;80;21101;-71
2022/11/09 08:23:01;;;;;;;6.77;4.23;;;;;;;7.89;79.33;96175.00;1771361;80;21050;-68
2022/11/09 08:25:28;;;;;;;8.17;5.87;;;;;;;8.04;78.20;96182.02;1772896;80;21023;-68
2022/11/09 08:27:56;;;;;;;6.20;3.43;;;;;;;8.19;77.98;96178.52;1775289;80;21054;-72
2022/11/09 08:30:24;;;;;;;5.20;3.50;;;;;;;8.32;76.33;96180.71;1779542;80;21033;-73
2022/11/09 08:32:51;;;;;;;6.03;3.80;;;;;;;8.43;76.55;96176.34;1768582;80;21643;-69
2022/11/09 08:35:21;;;;;;;4.63;3.20;;;;;;;8.54;76.29;96175.91;1742422;80;21565;-76
2022/11/09 08:37:51;;;;;;;5.33;3.63;;;;;;;8.70;77.04;96182.45;1776190;80;21081;-69
2022/11/09 08:40:21;;;;;;;5.93;4.70;;;;;;;8.88;76.73;96182.41;1776181;80;21414;-68
2022/11/09 08:42:48;;;;;;;5.67;3.93;;;;;;;8.96;75.61;96179.75;1774401;80;21046;-66
2022/11/09 08:45:15;;;;;;;4.08;3.25;;;;;;;9.05;74.50;96179.28;1763399;80;21556;-67
2022/11/09 08:47:43;;;;;;;6.22;3.65;;;;;;;9.13;73.28;96173.13;1780253;80;21045;-67
2022/11/09 08:50:12;;;;;;;4.83;3.60;;;;;;;9.22;74.27;96167.39;1779082;80;21021;-69
2022/11/09 08:52:40;;;;;;;6.62;4.00;;;;;;;9.39;74.70;96167.73;1773207;80;21069;-67
2022/11/09 08:55:07;;;;;;;5.50;4.08;;;;;;;9.53;74.48;96168.10;1765178;79;21004;-70
2022/11/09 08:57:34;;;;;;;12.60;10.75;;;;;;;9.65;73.45;96164.95;1771962;80;22153;-66
2022/11/09 09:00:01;;;;;;;10.38;8.43;;;;;;;9.79;73.53;96160.48;1768286;80;21548;-66
2022/11/09 09:02:28;;;;;;;8.13;7.33;;;;;;;9.91;71.70;96155.58;1760590;80;21139;-69
2022/11/09 09:04:54;;;;;;;6.85;5.60;;;;;;;9.99;72.03;96166.07;1726368;82;21516;-70
2022/11/09 09:07:21;;;;;;;7.37;6.12;;;;;;;10.12;72.74;96169.04;1752414;82;21007;-67
2022/11/09 09:09:48;;;;;;;6.50;4.67;;;;;;;10.23;72.54;96164.57;1752378;81;21069;-68
2022/11/09 09:12:15;;;;;;;11.20;6.90;;;;;;;10.33;72.31;96160.10;1709807;83;21523;-66
2022/11/09 09:14:42;;;;;;;9.75;7.40;;;;;;;10.46;72.37;96162.19;1731818;82;21022;-67
2022/11/09 09:17:09;;;;;;;10.80;9.10;;;;;;;10.54;71.19;96160.37;1755814;80;21014;-66
2022/11/09 09:19:36;;;;;;;8.05;5.83;;;;;;;10.65;71.90;96163.77;1753707;80;21014;-67
2022/11/09 09:22:02;;;;;;;8.20;5.25;;;;;;;10.76;71.74;96161.92;1761672;80;21081;-67
2022/11/09 09:24:29;;;;;;;10.90;5.60;;;;;;;10.87;70.75;96147.73;1752937;80;21122;-67
2022/11/09 09:26:56;;;;;;;13.20;8.00;;;;;;;10.96;70.02;96159.06;1755846;81;21064;-67
2022/11/09 09:29:23;;;;;;;7.70;4.72;;;;;;;11.05;69.51;96150.16;1755637;81;21087;-66
2022/11/09 09:31:50;;;;;;;8.08;6.10;;;;;;;11.15;70.12;96150.92;1755532;81;21106;-68
2022/11/09 09:34:17;;;;;;;6.37;4.92;;;;;;;11.28;69.98;96147.69;1756661;81;21613;-67
2022/11/09 09:36:44;;;;;;;7.72;4.92;;;;;;;11.34;69.70;96140.56;1755190;81;21557;-69
2022/11/09 09:39:11;;;;;;;8.58;4.55;;;;;;;11.41;68.03;96142.20;1752745;81;21090;-67
2022/11/09 09:41:57;;;;;;;5.72;4.03;;;;;;;11.48;67.89;96146.52;1756576;81;21031;-68
2022/11/09 09:44:50;;;;;;;4.95;3.80;;;;;;;11.58;67.88;96135.84;1754465;81;21027;-65
2022/11/09 09:47:28;;;;;;;8.95;4.30;;;;;;;11.73;67.48;96134.75;1755750;81;21537;-65
2022/11/09 09:50:05;;;;;;;8.80;4.60;;;;;;;11.89;67.62;96129.68;1749945;81;21086;-65
2022/11/09 09:53:14;;;;;;;5.95;3.98;;;;;;;12.19;66.17;96129.65;1757399;81;21043;-62
2022/11/09 09:55:45;;;;;;;12.15;6.05;;;;;;;12.60;64.06;96121.89;1755061;81;21075;-63
2022/11/09 09:58:24;;;;;;;7.58;5.17;;;;;;;13.00;63.59;96129.97;1753595;80;21044;-63
2022/11/09 10:01:21;;;;;;;6.03;4.35;;;;;;;13.38;62.74;96113.34;1755129;79;21472;-67
2022/11/09 10:03:49;;;;;;;8.43;5.20;;;;;;;13.84;62.61;96118.95;1756601;81;21031;-66
2022/11/09 10:06:40;;;;;;;5.65;4.05;;;;;;;14.34;62.05;96107.14;1756132;81;21169;-64
2022/11/09 10:09:36;;;;;;;7.83;5.58;;;;;;;14.76;61.04;96114.48;1758293;81;21536;-64
2022/11/09 10:12:35;;;;;;;5.75;4.00;;;;;;;15.30;61.27;96104.58;1756444;81;21067;-68
2022/11/09 10:15:26;;;;;;;5.95;4.12;;;;;;;15.74;60.22;96105.05;1757505;81;21111;-65
2022/11/09 10:18:02;;;;;;;5.10;4.20;;;;;;;16.18;55.97;96100.14;1754787;81;21541;-67
2022/11/09 10:20:43;;;;;;;7.42;5.35;;;;;;;16.54;54.34;96093.64;1749622;81;21082;-67
2022/11/09 10:24:00;;;;;;;5.12;4.40;;;;;;;16.92;55.05;96091.47;1754205;81;21007;-65
2022/11/09 10:26:39;;;;;;;7.10;4.67;;;;;;;17.13;52.34;96091.14;1715254;82;21096;-66
2022/11/09 10:29:26;;;;;;;6.25;5.05;;;;;;;17.40;52.50;96083.45;1723203;82;21648;-65
2022/11/09 10:31:59;;;;;;;4.10;3.20;;;;;;;17.70;51.05;96088.09;1707704;82;21579;-65
2022/11/09 10:34:32;;;;;;;5.42;3.95;;;;;;;17.55;47.65;96092.69;1710464;82;21032;-66
2022/11/09 10:37:04;;;;;;;6.08;4.65;;;;;;;17.80;48.81;96091.30;1734306;82;21174;-66
2022/11/09 10:39:41;;;;;;;3.83;3.42;;;;;;;18.14;48.95;96087.28;1715248;82;21593;-66
2022/11/09 10:42:27;;;;;;;3.87;3.47;;;;;;;18.50;47.64;96088.92;1713118;82;21146;-67
2022/11/09 10:45:26;;;;;;;4.50;3.80;;;;;;;18.69;46.58;96085.45;1743729;82;21111;-67
2022/11/09 10:48:13;;;;;;;4.17;3.42;;;;;;;18.78;46.02;96075.75;1737860;82;21182;-68
2022/11/09 10:50:58;;;;;;;4.37;3.98;;;;;;;19.07;46.82;96078.94;1745654;82;21498;-66
2022/11/09 10:53:43;;;;;;;4.30;3.77;;;;;;;19.36;44.47;96076.31;1742900;81;21138;-66
2022/11/09 10:56:29;;;;;;;5.53;3.33;;;;;;;19.53;44.20;96075.52;1693413;83;21078;-68
2022/11/09 10:59:44;;;;;;;5.17;3.30;;;;;;;19.48;44.32;96078.88;1735299;81;21620;-65
2022/11/09 11:02:40;;;;;;;5.10;4.60;;;;;;;19.60;43.31;96078.30;1758486;81;21103;-67
2022/11/09 11:05:29;;;;;;;3.75;3.30;;;;;;;19.87;43.84;96074.37;1752367;80;21004;-70
2022/11/09 11:08:27;;;;;;;7.10;4.60;;;;;;;20.21;42.35;96073.20;1757688;81;21008;-68
2022/11/09 11:11:21;;;;;;;3.83;2.77;;;;;;;20.28;41.18;96072.82;1751971;80;21585;-67
2022/11/09 11:14:20;;;;;;;4.37;3.98;;;;;;;20.37;40.57;96070.17;1760559;81;21641;-66
2022/11/09 11:17:21;;;;;;;5.00;3.15;;;;;;;20.56;41.00;96062.58;1756137;81;21509;-67
2022/11/09 11:20:27;;;;;;;3.98;3.58;;;;;;;20.66;41.45;96062.05;1726735;81;21062;-68
2022/11/09 11:23:19;;;;;;;3.75;3.42;;;;;;;20.50;40.54;96053.87;1695076;83;21647;-67
2022/11/09 11:26:31;;;;;;;4.30;2.98;;;;;;;20.75;40.44;96051.31;1731303;82;21510;-70
2022/11/09 11:29:27;;;;;;;4.37;3.62;;;;;;;21.07;39.09;96047.44;1705721;84;21074;-68
2022/11/09 11:32:18;;;;;;;6.28;5.30;;;;;;;21.36;38.79;96048.06;1690678;84;21066;-69
2022/11/09 11:35:24;;;;;;;6.62;2.98;;;;;;;21.52;39.71;96049.95;1694532;83;21651;-69
2022/11/09 11:38:31;;;;;;;3.58;2.92;;;;;;;21.74;38.11;96050.98;1715915;83;21136;-70
2022/11/09 11:41:39;;;;;;;4.20;3.50;;;;;;;21.94;37.76;96049.88;1724221;82;21045;-69
2022/11/09 11:44:47;;;;;;;5.20;3.27;;;;;;;22.01;37.44;96046.75;1725229;83;21043;-70
2022/11/09 11:47:58;;;;;;;3.37;3.02;;;;;;;22.28;36.82;96041.28;1721372;82;21037;-69
2022/11/09 11:51:29;;;;;;;5.22;3.17;;;;;;;22.23;35.17;96033.47;1723014;83;21043;-70
2022/11/09 11:54:37;;;;;;;4.22;3.75;;;;;;;22.13;35.72;96028.20;1722205;83;21575;-69
2022/11/09 11:57:37;;;;;;;4.08;3.20;;;;;;;21.73;36.09;96031.80;1722757;83;21550;-69
2022/11/09 12:00:22;;;;;;;3.95;2.70;;;;;;;21.80;37.48;96030.03;1718529;83;21076;-70
2022/11/09 12:03:48;;;;;;;4.45;2.77;;;;;;;22.05;36.21;96029.99;1722990;83;21147;-69
2022/11/09 12:07:02;;;;;;;3.45;2.90;;;;;;;22.02;35.92;96023.42;1724292;83;21052;-69
2022/11/09 12:10:12;;;;;;;7.78;3.10;;;;;;;22.34;35.47;96024.30;1713403;83;21448;-69